KRKDKAUG

Guest
Details From KRKD - Knox Co Rgnl
To KAUG - Augusta State
Flight Number -
Tags Routegen
Created
Modified
Stats Distance 34 nm / 63 km
Max Altitude 0 ft / 0 m
Waypoints 2
Social Downloads 1
Likes 0
Share VATSIM

Download

Looking for another format? Having issues loading an existing format? Contact us
Advertisement - Login to hide

Notes

None

Route

KRKD KAUG

ID Type Via Altitude (ft/m) Position (lat/lon) Dist (leg/tot) Name
O KRKD APT - 0 / 0 44.06152 / -69.10837 - / 0 nm
O KAUG APT - 0 / 0 44.32766 / -69.80368 33 / 33 nm

Altitude Profile

Advertisement - Login to hide

KRKD

Details ICAO KRKD (RKD)
Name KNOX CO RGNL
Region United States
Timezone America/New_York (UTC-4.0)
Stats Elevation 56 ft / 17 m (AMSL)
Location 44.060200° -69.099200°
Runways 2
Magnetic Variation 15.770° W

METAR

KRKD 190256Z AUTO 28003KT 10SM CLR M01/M06 A3020 RMK AO2 SLP229 T10061056 51008 FZRANO

Decode

TAF

TAF KRKD 182320Z 1900/1924 26005KT P6SM SCT100 BKN250 FM191800 23013KT P6SM FEW250

Decode

Departure Runways

ID Width Length Bearing (true/mag) Surface Threshold Overrun Markings Lighting
03 100 ft / 30 m 4,004 ft / 1,220 m 13.39° / 29.16° ASPHALT 0 ft / 0 m 0 ft / 0 m APP EDGE THRESHOLD REIL-OMNI
13 100 ft / 30 m 5,012 ft / 1,528 m 110.98° / 126.76° ASPHALT 0 ft / 0 m 187 ft / 57 m PREC-APP EDGE THRESHOLD MALSR
21 100 ft / 30 m 4,004 ft / 1,220 m 193.39° / 209.16° ASPHALT 0 ft / 0 m 0 ft / 0 m APP EDGE THRESHOLD
31 100 ft / 30 m 5,012 ft / 1,528 m 291.00° / 306.77° ASPHALT 0 ft / 0 m 0 ft / 0 m APP EDGE THRESHOLD REIL-OMNI

KAUG

Details ICAO KAUG (AUG)
Name AUGUSTA STATE
Region United States
Timezone America/New_York (UTC-4.0)
Stats Elevation 352 ft / 107 m (AMSL)
Location 44.320300° -69.796400°
Runways 2
Magnetic Variation 15.604° W

METAR

KAUG 190253Z AUTO 23003KT 10SM CLR 01/M08 A3019 RMK AO2 SLP227 T00061078 50002

Decode

TAF

TAF KAUG 182320Z 1900/1924 30010KT P6SM FEW250 FM190400 VRB04KT P6SM SCT100 BKN250 FM191700 22006KT P6SM FEW250

Decode

Destination Runways

ID Width Length Bearing (true/mag) Surface Threshold Overrun Markings Lighting
08 75 ft / 23 m 2,706 ft / 825 m 62.00° / 77.60° ASPHALT 0 ft / 0 m 0 ft / 0 m APP EDGE THRESHOLD
17 100 ft / 30 m 5,006 ft / 1,526 m 153.19° / 168.79° ASPHALT 0 ft / 0 m 184 ft / 56 m PREC-APP EDGE THRESHOLD MALSR
26 75 ft / 23 m 2,706 ft / 825 m 242.00° / 257.61° ASPHALT 0 ft / 0 m 0 ft / 0 m APP EDGE THRESHOLD
35 100 ft / 30 m 5,006 ft / 1,526 m 333.19° / 348.80° ASPHALT 0 ft / 0 m 167 ft / 51 m PREC-APP EDGE THRESHOLD REIL-OMNI

Approach Navaids

Runway Type Ident Frequency Range Bearing (true/mag) Slope Elevation
17 LOC-ILS IAUG 108.70 MHz 18 nm / 33 km 153.19° / 168.79 ° - 352 ft / 107 m (AMSL)
17 GS IAUG 108.70 MHz 10 nm / 19 km 153.19° / 168.79 ° 3.00° 352 ft / 107 m (AMSL)
17 OM OM - - 153.19° / 168.79 ° - 239 ft / 73 m (AMSL)
17 MM MM - - 153.19° / 168.79 ° - 352 ft / 107 m (AMSL)

Popular Alternatives